createdAt,value
2023-10-06T00:01:28.598Z,102089.72
2023-10-06T00:04:32.079Z,102085.91
2023-10-06T00:07:35.939Z,102081.22
2023-10-06T00:10:45.317Z,102081.81
2023-10-06T00:14:02.057Z,102081.56
2023-10-06T00:17:09.954Z,102089.16
2023-10-06T00:20:22.795Z,102070.47
2023-10-06T00:23:29.410Z,102062.78
2023-10-06T00:26:32.203Z,102070.81
2023-10-06T00:29:38.321Z,102074.75
2023-10-06T00:32:43.673Z,102070.47
2023-10-06T00:35:49.171Z,102078.97
2023-10-06T00:38:52.870Z,102077.63
2023-10-06T00:42:05.365Z,102070.69
2023-10-06T00:45:10.255Z,102066.03
2023-10-06T00:48:16.277Z,102070.56
2023-10-06T00:51:23.107Z,102069.00
2023-10-06T00:54:26.417Z,102061.34
2023-10-06T00:57:30.150Z,102054.50
2023-10-06T01:00:38.319Z,102047.31
2023-10-06T01:03:43.909Z,102043.50
2023-10-06T01:06:47.754Z,102037.16
2023-10-06T01:09:59.050Z,102038.22
2023-10-06T01:13:13.718Z,102039.53
2023-10-06T01:16:16.708Z,102049.00
2023-10-06T01:19:28.272Z,102047.31
2023-10-06T01:22:42.681Z,102050.53
2023-10-06T01:25:46.227Z,102050.66
2023-10-06T01:28:50.781Z,102052.66
2023-10-06T01:31:53.666Z,102049.53
2023-10-06T01:34:56.557Z,102046.03
2023-10-06T01:38:01.804Z,102046.88
2023-10-06T01:41:08.278Z,102057.88
2023-10-06T01:44:13.779Z,102057.63
2023-10-06T01:47:19.502Z,102060.97
2023-10-06T01:50:27.656Z,102059.69
2023-10-06T01:53:34.984Z,102062.53
2023-10-06T01:56:38.180Z,102052.81
2023-10-06T01:59:41.078Z,102059.28
2023-10-06T02:02:44.006Z,102053.50
2023-10-06T02:05:46.987Z,102053.50
2023-10-06T02:08:53.587Z,102055.28
2023-10-06T02:11:56.656Z,102060.31
2023-10-06T02:14:59.848Z,102056.22
2023-10-06T02:18:02.635Z,102048.53
2023-10-06T02:21:07.925Z,102056.66
2023-10-06T02:24:13.897Z,102042.38
2023-10-06T02:27:17.335Z,102054.63
2023-10-06T02:30:26.502Z,102054.75
2023-10-06T02:33:32.237Z,102058.59
2023-10-06T02:36:35.240Z,102062.69
2023-10-06T02:39:44.552Z,102059.75
2023-10-06T02:42:53.128Z,102063.34
2023-10-06T02:46:05.194Z,102069.72
2023-10-06T02:49:09.664Z,102067.31
2023-10-06T02:52:22.118Z,102070.28
2023-10-06T02:55:34.716Z,102063.00
2023-10-06T02:58:37.518Z,102049.78
2023-10-06T03:01:40.629Z,102042.09
2023-10-06T03:04:44.893Z,102045.19
2023-10-06T03:07:49.729Z,102041.59
2023-10-06T03:10:54.164Z,102041.69
2023-10-06T03:13:59.814Z,102042.34
2023-10-06T03:17:02.915Z,102047.88
2023-10-06T03:20:11.653Z,102044.03
2023-10-06T03:23:25.622Z,102039.72
2023-10-06T03:26:35.003Z,102040.53
2023-10-06T03:29:48.741Z,102038.25
2023-10-06T03:32:54.055Z,102030.34
2023-10-06T03:35:58.988Z,102033.16
2023-10-06T03:39:08.470Z,102032.00
2023-10-06T03:42:19.133Z,102031.81
2023-10-06T03:45:28.420Z,102034.59
2023-10-06T03:48:32.689Z,102028.22
2023-10-06T03:51:39.072Z,102024.38
2023-10-06T03:54:42.956Z,102027.72
2023-10-06T03:57:47.596Z,102033.50
2023-10-06T04:00:52.976Z,102034.59
2023-10-06T04:03:59.816Z,102028.47
2023-10-06T04:07:03.105Z,102029.81
2023-10-06T04:10:09.033Z,102024.81
2023-10-06T04:13:13.757Z,102022.31
2023-10-06T04:16:16.708Z,102019.94
2023-10-06T04:19:20.043Z,102024.56
2023-10-06T04:22:22.997Z,102021.94
2023-10-06T04:25:25.989Z,102022.69
2023-10-06T04:28:30.275Z,102019.19
2023-10-06T04:31:33.976Z,102021.25
2023-10-06T04:34:37.205Z,102015.53
2023-10-06T04:37:40.212Z,102016.38
2023-10-06T04:40:43.413Z,102016.25
2023-10-06T04:43:47.655Z,102022.19
2023-10-06T04:46:51.479Z,102022.44
2023-10-06T04:49:54.360Z,102024.97
2023-10-06T04:52:57.320Z,102018.03
2023-10-06T04:56:00.088Z,102018.25
2023-10-06T04:59:04.449Z,102019.91
2023-10-06T05:02:07.316Z,102013.34
2023-10-06T05:05:11.673Z,102010.81
2023-10-06T05:08:16.161Z,102009.63
2023-10-06T05:11:20.666Z,102014.06
2023-10-06T05:14:28.795Z,102016.56
2023-10-06T05:17:33.147Z,102024.50
2023-10-06T05:20:37.157Z,102019.91
2023-10-06T05:23:40.101Z,102016.94
2023-10-06T05:26:44.706Z,102013.56
2023-10-06T05:29:48.955Z,102003.72
2023-10-06T05:32:51.795Z,101999.59
2023-10-06T05:35:54.693Z,101998.25
2023-10-06T05:38:57.547Z,102002.63
2023-10-06T05:42:00.319Z,102013.22
2023-10-06T05:45:13.844Z,102013.47
2023-10-06T05:48:17.305Z,102022.91
2023-10-06T05:51:22.724Z,102013.09
2023-10-06T05:54:27.969Z,102013.41
2023-10-06T05:57:32.269Z,102020.53
2023-10-06T06:00:36.697Z,102022.03
2023-10-06T06:03:46.638Z,102021.06
2023-10-06T06:06:50.311Z,102021.38
2023-10-06T06:09:53.195Z,102018.63
2023-10-06T06:12:56.150Z,102023.53
2023-10-06T06:16:00.926Z,102012.75
2023-10-06T06:19:06.883Z,102006.66
2023-10-06T06:22:11.349Z,102010.56
2023-10-06T06:25:14.283Z,102006.91
2023-10-06T06:28:17.883Z,102004.72
2023-10-06T06:31:22.503Z,101999.00
2023-10-06T06:34:25.522Z,101999.09
2023-10-06T06:37:29.015Z,102002.34
2023-10-06T06:40:31.927Z,102006.88
2023-10-06T06:43:34.728Z,102010.97
2023-10-06T06:46:39.809Z,102022.75
2023-10-06T06:49:44.569Z,101994.53
2023-10-06T06:52:48.703Z,101994.66
2023-10-06T06:55:52.554Z,101990.75
2023-10-06T06:58:55.400Z,101993.31
2023-10-06T07:01:59.941Z,102009.41
2023-10-06T07:05:03.068Z,102007.22
2023-10-06T07:08:06.688Z,102003.19
2023-10-06T07:11:11.485Z,101999.47
2023-10-06T07:14:15.880Z,101998.38
2023-10-06T07:17:23.396Z,102005.44
2023-10-06T07:20:28.560Z,101990.22
2023-10-06T07:23:31.443Z,101984.50
2023-10-06T07:26:34.452Z,101982.19
2023-10-06T07:29:37.263Z,101995.50
2023-10-06T07:32:43.023Z,101992.28
2023-10-06T07:35:48.554Z,101991.97
2023-10-06T07:38:51.770Z,101990.72
2023-10-06T07:41:54.665Z,101998.88
2023-10-06T07:44:58.956Z,101984.56
2023-10-06T07:48:06.249Z,101991.97
2023-10-06T07:51:09.396Z,101981.44
2023-10-06T07:54:12.233Z,101987.31
2023-10-06T07:57:15.359Z,101992.06
2023-10-06T08:00:28.528Z,101987.91
2023-10-06T08:03:33.947Z,101979.69
2023-10-06T08:06:37.242Z,101984.34
2023-10-06T08:09:40.471Z,101972.56
2023-10-06T08:12:44.615Z,101983.84
2023-10-06T08:15:47.407Z,101979.88
2023-10-06T08:18:51.674Z,101970.28
2023-10-06T08:21:56.981Z,101959.06
2023-10-06T08:25:00.065Z,101954.09
2023-10-06T08:28:06.296Z,101949.72
2023-10-06T08:31:16.096Z,101937.50
2023-10-06T08:34:22.742Z,101937.25
2023-10-06T08:37:25.667Z,101925.09
2023-10-06T08:40:28.921Z,101929.31
2023-10-06T08:43:33.501Z,101930.19
2023-10-06T08:46:36.479Z,101925.19
2023-10-06T08:49:42.071Z,101926.06
2023-10-06T08:52:47.185Z,101935.47
2023-10-06T08:55:50.227Z,101930.50
2023-10-06T08:58:54.483Z,101925.25
2023-10-06T09:01:57.282Z,101933.56
2023-10-06T09:05:01.696Z,101931.38
2023-10-06T09:08:06.572Z,101928.63
2023-10-06T09:11:09.439Z,101923.63
2023-10-06T09:14:13.604Z,101921.41
2023-10-06T09:17:17.344Z,101934.19
2023-10-06T09:20:31.503Z,101921.69
2023-10-06T09:23:37.727Z,101920.28
2023-10-06T09:26:40.714Z,101918.38
2023-10-06T09:29:43.518Z,101920.03
2023-10-06T09:32:46.454Z,101918.66
2023-10-06T09:36:02.916Z,101900.91
2023-10-06T09:39:07.701Z,101895.03
2023-10-06T09:42:11.198Z,101885.31
2023-10-06T09:45:17.098Z,101878.34
2023-10-06T09:48:27.476Z,101873.84
2023-10-06T09:51:34.653Z,101872.22
2023-10-06T09:54:39.587Z,101869.75
2023-10-06T09:57:44.625Z,101881.03
2023-10-06T10:00:47.729Z,101864.53
2023-10-06T10:03:51.703Z,101862.84
2023-10-06T10:06:56.716Z,101861.25
2023-10-06T10:10:00.157Z,101859.09
2023-10-06T10:13:36.546Z,101861.84
2023-10-06T10:17:06.117Z,101857.25
2023-10-06T10:20:11.044Z,101855.00
2023-10-06T10:23:17.255Z,101857.28
2023-10-06T10:26:24.199Z,101858.13
2023-10-06T10:29:30.716Z,101851.66
2023-10-06T10:32:33.488Z,101849.72
2023-10-06T10:35:36.624Z,101831.91
2023-10-06T10:38:41.206Z,101815.78
2023-10-06T10:41:43.975Z,101820.44
2023-10-06T10:44:48.756Z,101818.22
2023-10-06T10:47:52.752Z,101816.28
2023-10-06T10:51:00.788Z,101811.47
2023-10-06T10:54:07.211Z,101820.94
2023-10-06T10:57:12.842Z,101833.72
2023-10-06T11:00:16.969Z,101829.84
2023-10-06T11:03:21.644Z,101826.78
2023-10-06T11:06:24.660Z,101824.72
2023-10-06T11:09:31.353Z,101809.66
2023-10-06T11:12:36.354Z,101822.97
2023-10-06T11:15:40.017Z,101805.19
2023-10-06T11:18:42.916Z,101794.31
2023-10-06T11:21:48.325Z,101794.47
2023-10-06T11:24:58.415Z,101803.94
2023-10-06T11:28:04.787Z,101797.91
2023-10-06T11:31:12.355Z,101779.75
2023-10-06T11:37:19.861Z,101774.38
2023-10-06T11:40:25.968Z,101778.38
2023-10-06T11:43:32.128Z,101770.53
2023-10-06T11:46:49.417Z,101764.91
2023-10-06T11:49:55.214Z,101755.00
2023-10-06T11:52:58.050Z,101737.28
2023-10-06T11:56:09.133Z,101723.16
2023-10-06T11:59:21.401Z,101705.09
2023-10-06T12:02:25.333Z,101708.81
2023-10-06T12:05:28.691Z,101684.06
2023-10-06T12:08:31.514Z,101680.50
2023-10-06T12:11:35.852Z,101681.56
2023-10-06T12:14:39.211Z,101676.22
2023-10-06T12:17:43.282Z,101661.38
2023-10-06T12:20:46.336Z,101666.03
2023-10-06T12:23:49.366Z,101672.88
2023-10-06T12:26:53.724Z,101672.66
2023-10-06T12:29:56.790Z,101686.59
2023-10-06T12:33:00.439Z,101673.78
2023-10-06T12:36:09.251Z,101674.19
2023-10-06T12:39:16.981Z,101658.09
2023-10-06T12:42:21.065Z,101648.28
2023-10-06T12:45:24.283Z,101655.38
2023-10-06T12:48:27.168Z,101644.38
2023-10-06T12:51:30.436Z,101637.03
2023-10-06T12:54:33.123Z,101621.13
2023-10-06T12:57:38.929Z,101615.91
2023-10-06T13:00:41.825Z,101621.00
2023-10-06T13:03:45.135Z,101629.34
2023-10-06T13:06:49.766Z,101629.44
2023-10-06T13:09:54.774Z,101628.66
2023-10-06T13:12:59.306Z,101623.63
2023-10-06T13:16:02.151Z,101636.31
2023-10-06T13:19:05.659Z,101632.25
2023-10-06T13:22:08.425Z,101635.94
2023-10-06T13:25:12.396Z,101646.16
2023-10-06T13:28:19.460Z,101640.44
2023-10-06T13:31:22.802Z,101637.72
2023-10-06T13:34:25.566Z,101639.44
2023-10-06T13:37:29.364Z,101631.59
2023-10-06T13:40:32.494Z,101619.72
2023-10-06T13:43:36.625Z,101621.94
2023-10-06T13:46:41.791Z,101610.59
2023-10-06T13:49:44.801Z,101627.25
2023-10-06T13:52:50.836Z,101616.69
2023-10-06T13:55:54.317Z,101617.00
2023-10-06T13:58:58.500Z,101603.44
2023-10-06T14:02:04.033Z,101603.34
2023-10-06T14:05:08.497Z,101589.22
2023-10-06T14:08:12.483Z,101577.63
2023-10-06T14:11:15.401Z,101574.84
2023-10-06T14:14:39.694Z,101569.53
2023-10-06T14:17:43.501Z,101554.88
2023-10-06T14:20:50.956Z,101550.75
2023-10-06T14:23:56.004Z,101551.31
2023-10-06T14:26:59.927Z,101547.94
2023-10-06T14:30:05.354Z,101544.66
2023-10-06T14:33:18.968Z,101531.91
2023-10-06T14:36:26.982Z,101527.72
2023-10-06T14:39:47.054Z,101518.84
2023-10-06T14:43:07.344Z,101524.72
2023-10-06T14:46:11.496Z,101515.88
2023-10-06T14:49:15.111Z,101509.19
2023-10-06T14:52:17.971Z,101514.78
2023-10-06T14:55:22.707Z,101512.88
2023-10-06T14:58:25.567Z,101512.84
2023-10-06T15:01:30.429Z,101499.81
2023-10-06T15:04:33.279Z,101499.53
2023-10-06T15:07:38.058Z,101494.25
2023-10-06T15:10:42.426Z,101492.09
2023-10-06T15:13:48.291Z,101485.09
2023-10-06T15:16:52.595Z,101482.34
2023-10-06T15:20:00.092Z,101480.41
2023-10-06T15:23:02.892Z,101474.03
2023-10-06T15:26:08.508Z,101474.56
2023-10-06T15:29:12.836Z,101459.06
2023-10-06T15:32:17.231Z,101458.00
2023-10-06T15:35:20.142Z,101456.59
2023-10-06T15:38:23.266Z,101445.75
2023-10-06T15:41:26.369Z,101431.31
2023-10-06T15:44:29.226Z,101428.56
2023-10-06T15:47:34.784Z,101424.69
2023-10-06T15:50:37.989Z,101412.13
2023-10-06T15:53:42.511Z,101424.66
2023-10-06T15:56:47.784Z,101412.75
2023-10-06T15:59:50.730Z,101424.44
2023-10-06T16:02:55.811Z,101419.13
2023-10-06T16:05:59.108Z,101420.00
2023-10-06T16:09:09.101Z,101416.94
2023-10-06T16:12:14.435Z,101418.91
2023-10-06T16:15:19.382Z,101411.97
2023-10-06T16:18:23.501Z,101401.97
2023-10-06T16:21:26.400Z,101401.97
2023-10-06T16:24:29.154Z,101405.06
2023-10-06T16:27:33.010Z,101399.47
2023-10-06T16:30:35.876Z,101393.66
2023-10-06T16:33:42.367Z,101387.06
2023-10-06T16:36:45.283Z,101401.75
2023-10-06T16:39:48.241Z,101392.59
2023-10-06T16:42:50.945Z,101395.13
2023-10-06T16:45:53.731Z,101393.72
2023-10-06T16:48:58.552Z,101387.59
2023-10-06T16:52:01.407Z,101392.31
2023-10-06T16:55:07.046Z,101379.03
2023-10-06T16:58:10.722Z,101384.03
2023-10-06T17:01:13.508Z,101367.66
2023-10-06T17:04:19.533Z,101381.56
2023-10-06T17:07:22.520Z,101368.25
2023-10-06T17:10:25.270Z,101366.25
2023-10-06T17:13:29.595Z,101356.31
2023-10-06T17:16:32.558Z,101364.97
2023-10-06T17:19:38.500Z,101368.75
2023-10-06T17:22:41.392Z,101361.03
2023-10-06T17:25:44.154Z,101358.84
2023-10-06T17:28:47.292Z,101345.50
2023-10-06T17:31:50.197Z,101340.78
2023-10-06T17:34:54.607Z,101340.00
2023-10-06T17:37:58.592Z,101338.00
2023-10-06T17:41:01.408Z,101334.16
2023-10-06T17:44:05.011Z,101334.13
2023-10-06T17:47:08.569Z,101333.28
2023-10-06T17:50:13.730Z,101334.34
2023-10-06T17:53:16.591Z,101338.72
2023-10-06T17:56:19.903Z,101337.09
2023-10-06T17:59:22.884Z,101322.69
2023-10-06T18:02:26.211Z,101331.00
2023-10-06T18:05:30.305Z,101327.09
2023-10-06T18:08:33.743Z,101314.06
2023-10-06T18:11:36.607Z,101329.00
2023-10-06T18:14:39.802Z,101309.38
2023-10-06T18:17:43.039Z,101319.03
2023-10-06T18:20:47.618Z,101311.31
2023-10-06T18:23:50.515Z,101314.38
2023-10-06T18:26:53.238Z,101305.19
2023-10-06T18:29:56.284Z,101302.69
2023-10-06T18:32:59.165Z,101299.34
2023-10-06T18:36:03.387Z,101299.91
2023-10-06T18:39:07.726Z,101305.75
2023-10-06T18:42:10.704Z,101290.59
2023-10-06T18:45:14.418Z,101299.75
2023-10-06T18:48:18.714Z,101295.00
2023-10-06T18:51:23.496Z,101297.53
2023-10-06T18:54:26.637Z,101292.53
2023-10-06T18:57:30.608Z,101288.94
2023-10-06T19:00:33.812Z,101290.06
2023-10-06T19:03:38.188Z,101297.75
2023-10-06T19:06:45.432Z,101299.09
2023-10-06T19:09:48.377Z,101286.66
2023-10-06T19:12:51.377Z,101288.25
2023-10-06T19:15:55.013Z,101298.22
2023-10-06T19:19:01.555Z,101287.47
2023-10-06T19:22:07.261Z,101286.00
2023-10-06T19:25:12.318Z,101279.06
2023-10-06T19:28:15.555Z,101282.97
2023-10-06T19:31:19.943Z,101267.47
2023-10-06T19:34:25.120Z,101264.41
2023-10-06T19:37:30.312Z,101268.00
2023-10-06T19:40:33.606Z,101269.94
2023-10-06T19:43:37.010Z,101284.28
2023-10-06T19:46:40.547Z,101268.81
2023-10-06T19:49:43.939Z,101265.91
2023-10-06T19:52:48.463Z,101269.81
2023-10-06T19:55:53.335Z,101264.50
2023-10-06T19:58:56.539Z,101270.13
2023-10-06T20:01:59.680Z,101254.28
2023-10-06T20:05:02.675Z,101256.00
2023-10-06T20:08:07.929Z,101259.78
2023-10-06T20:11:13.233Z,101257.59
2023-10-06T20:14:15.944Z,101252.94
2023-10-06T20:17:18.903Z,101255.63
2023-10-06T20:20:22.076Z,101263.53
2023-10-06T20:23:27.502Z,101251.75
2023-10-06T20:26:30.450Z,101262.53
2023-10-06T20:29:35.181Z,101259.75
2023-10-06T20:32:38.099Z,101268.91
2023-10-06T20:35:41.116Z,101260.31
2023-10-06T20:38:45.289Z,101256.16
2023-10-06T20:41:49.209Z,101255.63
2023-10-06T20:44:52.966Z,101265.59
2023-10-06T20:47:56.496Z,101271.38
2023-10-06T20:51:01.789Z,101277.66
2023-10-06T20:54:09.082Z,101263.59
2023-10-06T20:57:12.422Z,101268.22
2023-10-06T21:00:21.528Z,101264.16
2023-10-06T21:03:26.988Z,101271.69
2023-10-06T21:06:30.158Z,101257.78
2023-10-06T21:09:34.716Z,101256.44
2023-10-06T21:12:39.665Z,101254.75
2023-10-06T21:15:43.473Z,101253.66
2023-10-06T21:18:46.425Z,101250.38
2023-10-06T21:21:49.588Z,101247.59
2023-10-06T21:24:54.953Z,101239.59
2023-10-06T21:27:58.032Z,101229.91
2023-10-06T21:31:06.116Z,101236.28
2023-10-06T21:34:12.393Z,101234.91
2023-10-06T21:37:15.696Z,101236.94
2023-10-06T21:40:20.319Z,101233.63
2023-10-06T21:43:31.161Z,101235.03
2023-10-06T21:46:34.133Z,101243.66
2023-10-06T21:49:43.267Z,101241.41
2023-10-06T21:52:46.260Z,101237.28
2023-10-06T21:55:51.134Z,101239.88
2023-10-06T21:58:54.184Z,101235.09
2023-10-06T22:01:58.951Z,101234.03
2023-10-06T22:05:02.280Z,101227.13
2023-10-06T22:08:07.428Z,101223.34
2023-10-06T22:11:13.912Z,101222.13
2023-10-06T22:14:20.713Z,101230.25
2023-10-06T22:17:23.645Z,101234.09
2023-10-06T22:20:32.064Z,101222.72
2023-10-06T22:23:36.857Z,101214.94
2023-10-06T22:26:41.528Z,101226.56
2023-10-06T22:29:48.494Z,101221.22
2023-10-06T22:32:51.753Z,101215.38
2023-10-06T22:35:54.713Z,101207.84
2023-10-06T22:38:57.568Z,101201.78
2023-10-06T22:42:02.134Z,101198.16
2023-10-06T22:45:09.004Z,101189.16
2023-10-06T22:48:13.457Z,101180.91
2023-10-06T22:51:16.927Z,101178.06
2023-10-06T22:54:19.978Z,101180.66
2023-10-06T22:57:24.543Z,101177.81
2023-10-06T23:00:30.247Z,101172.88
2023-10-06T23:03:33.755Z,101170.41
2023-10-06T23:06:37.094Z,101170.84
2023-10-06T23:09:40.744Z,101171.69
2023-10-06T23:12:48.603Z,101157.59
2023-10-06T23:15:51.598Z,101176.78
2023-10-06T23:18:56.749Z,101172.19
2023-10-06T23:22:02.787Z,101166.25
2023-10-06T23:25:09.333Z,101166.59
2023-10-06T23:28:13.820Z,101168.81
2023-10-06T23:31:17.158Z,101168.75
2023-10-06T23:34:20.276Z,101150.75
2023-10-06T23:37:23.561Z,101152.09
2023-10-06T23:40:27.011Z,101157.63
2023-10-06T23:43:31.957Z,101158.75
2023-10-06T23:46:35.013Z,101156.59
2023-10-06T23:49:42.493Z,101158.22
2023-10-06T23:52:46.733Z,101148.25
2023-10-06T23:55:50.562Z,101157.94
2023-10-06T23:58:55.433Z,101142.97
